createdAt,value
2022-08-25T00:00:20.219Z,16.08
2022-08-25T00:01:20.257Z,16.09
2022-08-25T00:02:20.282Z,16.08
2022-08-25T00:03:20.223Z,16.00
2022-08-25T00:04:20.234Z,16.02
2022-08-25T00:05:20.251Z,16.00
2022-08-25T00:06:20.213Z,16.08
2022-08-25T00:07:20.297Z,16.03
2022-08-25T00:08:20.169Z,16.05
2022-08-25T00:09:20.182Z,16.00
2022-08-25T00:10:20.223Z,16.05
2022-08-25T00:11:20.179Z,16.08
2022-08-25T00:12:20.281Z,16.06
2022-08-25T00:13:20.155Z,15.99
2022-08-25T00:14:20.158Z,15.99
2022-08-25T00:15:20.149Z,15.95
2022-08-25T00:16:20.224Z,15.93
2022-08-25T00:17:20.135Z,15.95
2022-08-25T00:18:20.186Z,15.95
2022-08-25T00:19:20.126Z,15.98
2022-08-25T00:20:20.140Z,15.95
2022-08-25T00:21:20.099Z,15.83
2022-08-25T00:22:20.101Z,15.84
2022-08-25T00:23:20.325Z,15.80
2022-08-25T00:24:20.084Z,15.84
2022-08-25T00:25:20.086Z,15.85
2022-08-25T00:26:20.115Z,15.91
2022-08-25T00:27:20.067Z,15.84
2022-08-25T00:28:20.089Z,15.84
2022-08-25T00:29:20.186Z,15.81
2022-08-25T00:30:20.061Z,15.91
2022-08-25T00:31:20.105Z,15.88
2022-08-25T00:32:20.063Z,15.91
2022-08-25T00:33:20.058Z,15.87
2022-08-25T00:34:20.291Z,15.88
2022-08-25T00:35:20.050Z,15.83
2022-08-25T00:36:20.017Z,15.85
2022-08-25T00:37:20.063Z,15.85
2022-08-25T00:38:20.024Z,15.77
2022-08-25T00:39:20.016Z,15.84
2022-08-25T00:40:20.406Z,15.87
2022-08-25T00:41:20.019Z,15.81
2022-08-25T00:42:19.997Z,15.78
2022-08-25T00:43:19.986Z,15.87
2022-08-25T00:44:20.066Z,15.85
2022-08-25T00:45:19.995Z,15.84
2022-08-25T00:46:20.008Z,15.90
2022-08-25T00:47:19.970Z,15.90
2022-08-25T00:48:19.950Z,15.84
2022-08-25T00:49:24.782Z,15.80
2022-08-25T00:50:19.989Z,15.85
2022-08-25T00:51:19.968Z,15.87
2022-08-25T00:52:19.942Z,15.88
2022-08-25T00:53:19.936Z,15.81
2022-08-25T00:54:19.956Z,15.95
2022-08-25T00:55:19.959Z,15.81
2022-08-25T00:56:20.818Z,15.85
2022-08-25T00:57:19.930Z,15.84
2022-08-25T00:58:20.905Z,15.85
2022-08-25T00:59:19.899Z,15.77
2022-08-25T01:00:19.909Z,15.81
2022-08-25T01:01:20.682Z,15.83
2022-08-25T01:02:19.908Z,15.83
2022-08-25T01:03:19.916Z,15.80
2022-08-25T01:04:19.873Z,15.80
2022-08-25T01:05:19.875Z,15.77
2022-08-25T01:06:19.887Z,15.77
2022-08-25T01:07:19.853Z,15.70
2022-08-25T01:08:19.918Z,15.66
2022-08-25T01:09:19.846Z,15.63
2022-08-25T01:10:19.844Z,15.63
2022-08-25T01:11:19.870Z,15.58
2022-08-25T01:12:19.838Z,15.60
2022-08-25T01:13:19.826Z,15.54
2022-08-25T01:14:19.837Z,15.54
2022-08-25T01:15:19.799Z,15.63
2022-08-25T01:16:19.877Z,15.50
2022-08-25T01:17:19.809Z,15.51
2022-08-25T01:18:19.844Z,15.45
2022-08-25T01:19:19.816Z,15.51
2022-08-25T01:20:19.804Z,15.51
2022-08-25T01:21:20.721Z,15.41
2022-08-25T01:22:19.770Z,15.41
2022-08-25T01:23:19.764Z,15.40
2022-08-25T01:24:19.750Z,15.45
2022-08-25T01:25:19.772Z,15.48
2022-08-25T01:26:19.783Z,15.43
2022-08-25T01:27:19.736Z,15.51
2022-08-25T01:28:19.747Z,15.48
2022-08-25T01:29:19.737Z,15.44
2022-08-25T01:30:19.743Z,15.47
2022-08-25T01:31:24.119Z,15.45
2022-08-25T01:32:19.705Z,15.50
2022-08-25T01:33:19.702Z,15.41
2022-08-25T01:34:19.687Z,15.44
2022-08-25T01:35:19.705Z,15.43
2022-08-25T01:36:19.710Z,15.47
2022-08-25T01:37:19.681Z,15.40
2022-08-25T01:38:19.672Z,15.33
2022-08-25T01:39:19.692Z,15.33
2022-08-25T01:40:19.757Z,15.32
2022-08-25T01:41:19.665Z,15.36
2022-08-25T01:42:19.650Z,15.33
2022-08-25T01:43:19.638Z,15.29
2022-08-25T01:44:19.649Z,15.27
2022-08-25T01:45:19.658Z,15.19
2022-08-25T01:46:19.677Z,15.20
2022-08-25T01:47:19.615Z,15.23
2022-08-25T01:48:19.619Z,15.25
2022-08-25T01:49:19.606Z,15.12
2022-08-25T01:50:19.632Z,15.15
2022-08-25T01:51:19.607Z,15.17
2022-08-25T01:52:19.627Z,15.11
2022-08-25T01:53:19.597Z,15.17
2022-08-25T01:54:19.590Z,15.15
2022-08-25T01:55:19.584Z,15.08
2022-08-25T01:56:19.678Z,14.96
2022-08-25T01:57:19.557Z,15.04
2022-08-25T01:58:19.561Z,15.04
2022-08-25T01:59:24.031Z,15.04
2022-08-25T02:00:19.549Z,15.03
2022-08-25T02:01:19.650Z,15.14
2022-08-25T02:02:19.609Z,14.99
2022-08-25T02:03:19.635Z,15.10
2022-08-25T02:04:19.556Z,15.07
2022-08-25T02:05:23.323Z,14.96
2022-08-25T02:06:20.552Z,15.04
2022-08-25T02:07:19.554Z,14.99
2022-08-25T02:08:19.517Z,14.97
2022-08-25T02:09:19.500Z,15.03
2022-08-25T02:10:19.531Z,15.01
2022-08-25T02:11:19.481Z,14.97
2022-08-25T02:12:19.588Z,15.05
2022-08-25T02:13:19.477Z,14.96
2022-08-25T02:14:19.469Z,14.97
2022-08-25T02:15:19.459Z,15.05
2022-08-25T02:16:19.514Z,15.01
2022-08-25T02:17:20.481Z,14.92
2022-08-25T02:18:19.458Z,14.93
2022-08-25T02:19:19.446Z,14.96
2022-08-25T02:20:19.443Z,15.03
2022-08-25T02:21:19.431Z,14.90
2022-08-25T02:22:19.451Z,15.03
2022-08-25T02:23:19.482Z,14.95
2022-08-25T02:24:19.415Z,14.93
2022-08-25T02:25:19.417Z,14.89
2022-08-25T02:26:19.394Z,14.95
2022-08-25T02:27:19.435Z,14.93
2022-08-25T02:28:19.405Z,14.93
2022-08-25T02:29:19.394Z,14.87
2022-08-25T02:30:19.375Z,14.83
2022-08-25T02:31:19.370Z,14.96
2022-08-25T02:32:19.385Z,14.93
2022-08-25T02:33:19.386Z,14.83
2022-08-25T02:34:19.373Z,14.90
2022-08-25T02:35:19.348Z,14.86
2022-08-25T02:36:19.342Z,14.79
2022-08-25T02:37:19.355Z,14.82
2022-08-25T02:38:19.355Z,14.83
2022-08-25T02:39:19.316Z,14.73
2022-08-25T02:40:19.375Z,14.85
2022-08-25T02:41:19.323Z,14.77
2022-08-25T02:42:19.341Z,14.85
2022-08-25T02:43:19.311Z,14.79
2022-08-25T02:44:19.306Z,14.83
2022-08-25T02:45:19.300Z,14.77
2022-08-25T02:46:19.332Z,14.83
2022-08-25T02:47:19.303Z,14.83
2022-08-25T02:48:20.304Z,14.95
2022-08-25T02:49:19.276Z,14.85
2022-08-25T02:50:19.267Z,14.83
2022-08-25T02:51:20.268Z,14.82
2022-08-25T02:52:19.268Z,14.74
2022-08-25T02:53:19.253Z,14.79
2022-08-25T02:54:19.244Z,14.82
2022-08-25T02:55:19.275Z,14.78
2022-08-25T02:56:19.235Z,14.63
2022-08-25T02:57:19.244Z,14.74
2022-08-25T02:58:19.246Z,14.69
2022-08-25T02:59:19.236Z,14.71
2022-08-25T03:00:19.222Z,14.63
2022-08-25T03:01:19.224Z,14.64
2022-08-25T03:02:19.215Z,14.69
2022-08-25T03:03:19.219Z,14.74
2022-08-25T03:04:19.203Z,14.77
2022-08-25T03:05:19.189Z,14.67
2022-08-25T03:06:19.173Z,14.71
2022-08-25T03:07:19.180Z,14.67
2022-08-25T03:08:19.179Z,14.73
2022-08-25T03:09:19.178Z,14.71
2022-08-25T03:10:19.149Z,14.67
2022-08-25T03:11:19.159Z,14.67
2022-08-25T03:12:19.163Z,14.73
2022-08-25T03:13:19.277Z,14.77
2022-08-25T03:14:19.146Z,14.71
2022-08-25T03:15:19.136Z,14.79
2022-08-25T03:16:19.214Z,14.70
2022-08-25T03:17:19.110Z,14.74
2022-08-25T03:18:19.165Z,14.66
2022-08-25T03:19:19.115Z,14.64
2022-08-25T03:20:19.133Z,14.69
2022-08-25T03:21:19.100Z,14.67
2022-08-25T03:22:19.088Z,14.63
2022-08-25T03:23:19.086Z,14.74
2022-08-25T03:24:19.202Z,14.73
2022-08-25T03:25:23.895Z,14.64
2022-08-25T03:26:19.081Z,14.63
2022-08-25T03:27:19.054Z,14.66
2022-08-25T03:28:19.068Z,14.56
2022-08-25T03:29:19.102Z,14.52
2022-08-25T03:30:19.052Z,14.66
2022-08-25T03:31:19.071Z,14.53
2022-08-25T03:32:19.026Z,14.59
2022-08-25T03:33:19.035Z,14.52
2022-08-25T03:34:19.031Z,14.53
2022-08-25T03:35:19.126Z,14.56
2022-08-25T03:36:19.007Z,14.64
2022-08-25T03:37:18.993Z,14.56
2022-08-25T03:38:19.006Z,14.66
2022-08-25T03:39:19.017Z,14.56
2022-08-25T03:40:19.083Z,14.56
2022-08-25T03:41:19.703Z,14.67
2022-08-25T03:42:18.978Z,14.52
2022-08-25T03:43:18.959Z,14.64
2022-08-25T03:44:18.960Z,14.70
2022-08-25T03:45:18.958Z,14.64
2022-08-25T03:46:19.180Z,14.59
2022-08-25T03:47:18.964Z,14.67
2022-08-25T03:48:18.939Z,14.69
2022-08-25T03:49:18.950Z,14.53
2022-08-25T03:50:18.966Z,14.64
2022-08-25T03:51:19.020Z,14.58
2022-08-25T03:52:18.935Z,14.61
2022-08-25T03:53:18.927Z,14.61
2022-08-25T03:54:18.935Z,14.66
2022-08-25T03:55:18.911Z,14.59
2022-08-25T03:56:18.906Z,14.58
2022-08-25T03:57:18.914Z,14.56
2022-08-25T03:58:18.893Z,14.64
2022-08-25T03:59:18.869Z,14.67
2022-08-25T04:00:18.863Z,14.58
2022-08-25T04:01:19.229Z,14.74
2022-08-25T04:02:18.949Z,14.71
2022-08-25T04:03:18.897Z,14.61
2022-08-25T04:04:18.889Z,14.64
2022-08-25T04:05:18.849Z,14.70
2022-08-25T04:06:18.881Z,14.67
2022-08-25T04:07:18.845Z,14.63
2022-08-25T04:08:18.955Z,14.61
2022-08-25T04:09:18.835Z,14.59
2022-08-25T04:10:18.829Z,14.56
2022-08-25T04:11:18.811Z,14.46
2022-08-25T04:12:18.952Z,14.66
2022-08-25T04:13:18.837Z,14.49
2022-08-25T04:14:18.795Z,14.56
2022-08-25T04:15:19.778Z,14.46
2022-08-25T04:16:18.911Z,14.51
2022-08-25T04:17:19.789Z,14.49
2022-08-25T04:18:18.773Z,14.49
2022-08-25T04:19:18.817Z,14.52
2022-08-25T04:20:18.777Z,14.49
2022-08-25T04:21:18.790Z,14.48
2022-08-25T04:22:18.762Z,14.44
2022-08-25T04:23:18.748Z,14.45
2022-08-25T04:24:18.850Z,14.45
2022-08-25T04:25:18.744Z,14.38
2022-08-25T04:26:18.746Z,14.40
2022-08-25T04:27:18.734Z,14.44
2022-08-25T04:28:18.740Z,14.36
2022-08-25T04:29:18.728Z,14.46
2022-08-25T04:30:18.763Z,14.40
2022-08-25T04:31:18.760Z,14.51
2022-08-25T04:32:18.710Z,14.40
2022-08-25T04:33:18.700Z,14.38
2022-08-25T04:34:31.106Z,14.44
2022-08-25T04:35:19.798Z,14.38
2022-08-25T04:36:18.678Z,14.45
2022-08-25T04:37:18.692Z,14.45
2022-08-25T04:38:18.668Z,14.49
2022-08-25T04:39:18.658Z,14.41
2022-08-25T04:40:18.733Z,14.40
2022-08-25T04:41:19.695Z,14.53
2022-08-25T04:42:18.685Z,14.56
2022-08-25T04:43:18.661Z,14.49
2022-08-25T04:44:18.662Z,14.56
2022-08-25T04:45:18.637Z,14.59
2022-08-25T04:46:20.353Z,14.46
2022-08-25T04:47:18.626Z,14.53
2022-08-25T04:48:18.616Z,14.53
2022-08-25T04:49:18.633Z,14.64
2022-08-25T04:50:18.615Z,14.64
2022-08-25T04:51:18.604Z,14.59
2022-08-25T04:52:18.612Z,14.70
2022-08-25T04:53:18.588Z,14.59
2022-08-25T04:54:18.665Z,14.70
2022-08-25T04:55:18.562Z,14.73
2022-08-25T04:56:18.580Z,14.69
2022-08-25T04:57:18.575Z,14.64
2022-08-25T04:58:18.562Z,14.67
2022-08-25T04:59:18.553Z,14.58
2022-08-25T05:00:18.542Z,14.69
2022-08-25T05:01:18.632Z,14.67
2022-08-25T05:02:18.590Z,14.69
2022-08-25T05:03:18.544Z,14.74
2022-08-25T05:04:28.328Z,14.77
2022-08-25T05:05:19.514Z,14.82
2022-08-25T05:06:18.512Z,14.77
2022-08-25T05:07:18.503Z,14.83
2022-08-25T05:08:18.524Z,14.86
2022-08-25T05:09:19.775Z,14.99
2022-08-25T05:10:18.497Z,15.01
2022-08-25T05:11:18.473Z,14.99
2022-08-25T05:12:18.479Z,15.05
2022-08-25T05:13:18.489Z,15.01
2022-08-25T05:14:18.490Z,15.12
2022-08-25T05:15:18.488Z,15.11
2022-08-25T05:16:18.522Z,15.15
2022-08-25T05:17:18.458Z,15.20
2022-08-25T05:18:18.479Z,15.14
2022-08-25T05:19:18.567Z,15.23
2022-08-25T05:20:18.442Z,15.22
2022-08-25T05:21:18.433Z,15.30
2022-08-25T05:22:18.883Z,15.33
2022-08-25T05:23:18.429Z,15.40
2022-08-25T05:24:18.413Z,15.38
2022-08-25T05:25:18.474Z,15.41
2022-08-25T05:26:20.318Z,15.45
2022-08-25T05:27:18.428Z,15.48
2022-08-25T05:28:18.408Z,15.50
2022-08-25T05:29:18.396Z,15.56
2022-08-25T05:30:18.402Z,15.54
2022-08-25T05:31:18.422Z,15.60
2022-08-25T05:32:18.397Z,15.66
2022-08-25T05:33:18.404Z,15.70
2022-08-25T05:34:18.377Z,15.77
2022-08-25T05:35:18.361Z,15.83
2022-08-25T05:36:18.405Z,15.88
2022-08-25T05:37:18.346Z,15.90
2022-08-25T05:38:18.369Z,15.78
2022-08-25T05:39:18.335Z,15.88
2022-08-25T05:40:19.378Z,16.02
2022-08-25T05:41:18.439Z,15.98
2022-08-25T05:42:18.316Z,16.00
2022-08-25T05:43:18.326Z,16.14
2022-08-25T05:44:21.105Z,16.16
2022-08-25T05:45:20.561Z,16.25
2022-08-25T05:46:18.411Z,16.21
2022-08-25T05:47:18.318Z,16.25
2022-08-25T05:48:18.291Z,16.37
2022-08-25T05:49:18.290Z,16.39
2022-08-25T05:50:18.262Z,16.42
2022-08-25T05:51:18.296Z,16.46
2022-08-25T05:52:20.225Z,16.57
2022-08-25T05:53:19.264Z,16.72
2022-08-25T05:54:18.274Z,16.90
2022-08-25T05:55:18.253Z,17.01
2022-08-25T05:56:18.238Z,17.09
2022-08-25T05:57:19.331Z,17.04
2022-08-25T05:58:18.225Z,17.07
2022-08-25T05:59:18.270Z,17.22
2022-08-25T06:00:18.211Z,17.13
2022-08-25T06:01:18.264Z,17.19
2022-08-25T06:02:18.215Z,17.19
2022-08-25T06:03:18.318Z,17.07
2022-08-25T06:04:18.232Z,17.14
2022-08-25T06:05:18.201Z,17.30
2022-08-25T06:06:18.808Z,17.41
2022-08-25T06:07:18.174Z,17.46
2022-08-25T06:08:18.294Z,17.63
2022-08-25T06:09:18.196Z,17.62
2022-08-25T06:10:18.170Z,17.63
2022-08-25T06:11:18.176Z,17.59
2022-08-25T06:12:18.153Z,17.75
2022-08-25T06:13:18.148Z,17.81
2022-08-25T06:14:19.263Z,17.78
2022-08-25T06:15:18.133Z,17.84
2022-08-25T06:16:18.201Z,17.94
2022-08-25T06:17:18.128Z,17.93
2022-08-25T06:18:18.118Z,17.97
2022-08-25T06:19:18.148Z,18.09
2022-08-25T06:20:18.131Z,18.11
2022-08-25T06:21:18.112Z,18.03
2022-08-25T06:22:18.119Z,18.06
2022-08-25T06:23:18.109Z,18.21
2022-08-25T06:24:18.096Z,18.48
2022-08-25T06:25:18.193Z,18.63
2022-08-25T06:26:20.964Z,18.64
2022-08-25T06:27:18.073Z,18.67
2022-08-25T06:28:18.076Z,18.68
2022-08-25T06:29:18.079Z,18.78
2022-08-25T06:30:24.057Z,18.98
2022-08-25T06:31:19.248Z,19.24
2022-08-25T06:32:18.084Z,19.26
2022-08-25T06:33:18.032Z,19.30
2022-08-25T06:34:18.044Z,19.35
2022-08-25T06:35:18.036Z,19.42
2022-08-25T06:36:18.035Z,19.39
2022-08-25T06:37:20.384Z,19.56
2022-08-25T06:38:17.990Z,19.84
2022-08-25T06:39:18.001Z,20.39
2022-08-25T06:40:18.042Z,21.00
2022-08-25T06:41:18.023Z,21.51
2022-08-25T06:42:18.002Z,22.15
2022-08-25T06:43:17.975Z,22.81
2022-08-25T06:44:18.008Z,23.45
2022-08-25T06:45:17.987Z,24.18
2022-08-25T06:46:18.029Z,24.68
2022-08-25T06:47:18.043Z,25.51
2022-08-25T06:48:17.970Z,26.16
2022-08-25T06:49:17.945Z,26.67
2022-08-25T06:50:18.940Z,26.94
2022-08-25T06:51:17.943Z,27.15
2022-08-25T06:52:17.963Z,27.34
2022-08-25T06:53:17.928Z,27.49
2022-08-25T06:54:17.923Z,27.75
2022-08-25T06:55:17.905Z,28.00
2022-08-25T06:56:17.912Z,28.25
2022-08-25T06:57:18.016Z,28.52
2022-08-25T06:58:17.893Z,28.65
2022-08-25T06:59:17.909Z,28.74
2022-08-25T07:00:17.886Z,28.56
2022-08-25T07:01:19.883Z,28.50
2022-08-25T07:02:22.233Z,28.50
2022-08-25T07:03:17.992Z,28.53
2022-08-25T07:04:17.924Z,28.80
2022-08-25T07:05:27.278Z,29.12
2022-08-25T07:06:18.877Z,29.27
2022-08-25T07:07:17.935Z,29.39
2022-08-25T07:08:17.974Z,29.63
2022-08-25T07:09:17.842Z,30.20
2022-08-25T07:10:19.529Z,30.46
2022-08-25T07:11:17.846Z,30.56
2022-08-25T07:12:17.824Z,30.77
2022-08-25T07:13:17.816Z,30.89
2022-08-25T07:14:17.921Z,31.07
2022-08-25T07:15:20.470Z,31.26
2022-08-25T07:16:18.861Z,31.57
2022-08-25T07:17:17.819Z,31.71
2022-08-25T07:18:17.793Z,31.78
2022-08-25T07:19:17.819Z,31.90
2022-08-25T07:20:19.141Z,32.01
2022-08-25T07:21:20.646Z,32.16
2022-08-25T07:22:17.760Z,31.98
2022-08-25T07:23:17.776Z,31.84
2022-08-25T07:24:17.776Z,31.51
2022-08-25T07:25:18.059Z,31.74
2022-08-25T07:26:41.088Z,31.61
2022-08-25T07:27:18.746Z,31.15
2022-08-25T07:28:17.786Z,31.01
2022-08-25T07:29:17.755Z,31.37
2022-08-25T07:30:17.856Z,31.46
2022-08-25T07:31:17.736Z,31.84
2022-08-25T07:32:17.762Z,31.45
2022-08-25T07:33:17.725Z,31.26
2022-08-25T07:34:17.715Z,31.51
2022-08-25T07:35:18.879Z,31.79
2022-08-25T07:36:17.830Z,32.21
2022-08-25T07:37:27.579Z,32.26
2022-08-25T07:38:20.956Z,32.61
2022-08-25T07:39:17.720Z,31.84
2022-08-25T07:40:18.736Z,31.75
2022-08-25T07:41:17.717Z,31.75
2022-08-25T07:42:17.690Z,31.98
2022-08-25T07:43:17.663Z,31.46
2022-08-25T07:44:17.735Z,30.73
2022-08-25T07:45:20.881Z,31.15
2022-08-25T07:46:17.735Z,31.87
2022-08-25T07:47:17.690Z,31.94
2022-08-25T07:48:18.371Z,32.04
2022-08-25T07:49:17.648Z,32.35
2022-08-25T07:50:17.635Z,32.39
2022-08-25T07:51:18.302Z,32.69
2022-08-25T07:52:17.746Z,32.88
2022-08-25T07:53:17.647Z,33.27
2022-08-25T07:54:17.614Z,33.48
2022-08-25T07:55:17.960Z,33.63
2022-08-25T07:56:17.601Z,33.49
2022-08-25T07:57:17.620Z,33.36
2022-08-25T07:58:17.747Z,33.54
2022-08-25T07:59:17.592Z,33.51
2022-08-25T08:00:17.571Z,33.63
2022-08-25T08:01:17.660Z,33.86
2022-08-25T08:02:18.995Z,33.91
2022-08-25T08:03:35.168Z,33.92
2022-08-25T08:04:18.568Z,33.74
2022-08-25T08:05:17.579Z,34.20
2022-08-25T08:06:17.553Z,34.38
2022-08-25T08:07:17.702Z,34.66
2022-08-25T08:08:18.943Z,34.60
2022-08-25T08:09:17.556Z,34.47
2022-08-25T08:11:18.534Z,34.15
2022-08-25T08:12:17.541Z,33.85
2022-08-25T08:13:18.667Z,33.58
2022-08-25T08:14:18.629Z,32.48
2022-08-25T08:15:17.520Z,32.04
2022-08-25T08:16:17.594Z,32.53
2022-08-25T08:17:17.499Z,31.34
2022-08-25T08:18:17.491Z,31.19
2022-08-25T08:19:17.513Z,31.19
2022-08-25T08:20:23.142Z,31.24
2022-08-25T08:21:19.036Z,32.23
2022-08-25T08:22:17.478Z,33.19
2022-08-25T08:23:17.478Z,33.92
2022-08-25T08:24:44.035Z,34.52
2022-08-25T08:25:21.426Z,35.05
2022-08-25T08:26:17.482Z,35.47
2022-08-25T08:27:17.461Z,35.63
2022-08-25T08:28:17.484Z,35.14
2022-08-25T08:29:17.447Z,35.26
2022-08-25T08:30:17.432Z,35.38
2022-08-25T08:31:17.515Z,35.07
2022-08-25T08:32:17.434Z,34.56
2022-08-25T08:33:17.428Z,34.55
2022-08-25T08:34:17.422Z,34.48
2022-08-25T08:35:17.429Z,33.74
2022-08-25T08:36:17.553Z,33.48
2022-08-25T08:37:17.431Z,33.92
2022-08-25T08:38:21.243Z,34.25
2022-08-25T08:39:17.408Z,34.63
2022-08-25T08:40:17.488Z,35.10
2022-08-25T08:41:17.389Z,35.12
2022-08-25T08:42:18.463Z,35.01
2022-08-25T08:43:18.231Z,35.10
2022-08-25T08:44:17.398Z,33.85
2022-08-25T08:45:17.387Z,34.13
2022-08-25T08:46:17.447Z,34.38
2022-08-25T08:47:17.478Z,34.50
2022-08-25T08:48:17.356Z,35.01
2022-08-25T08:49:17.372Z,35.60
2022-08-25T08:50:23.125Z,35.83
2022-08-25T08:51:18.361Z,35.97
2022-08-25T08:52:17.334Z,35.61
2022-08-25T08:53:17.446Z,36.00
2022-08-25T08:54:17.335Z,36.41
2022-08-25T08:55:17.354Z,36.54
2022-08-25T08:56:17.333Z,36.59
2022-08-25T08:57:17.421Z,37.05
2022-08-25T08:58:17.337Z,36.60
2022-08-25T08:59:17.312Z,36.81
2022-08-25T09:00:17.344Z,37.22
2022-08-25T09:01:17.438Z,37.38
2022-08-25T09:02:38.781Z,37.54
2022-08-25T09:03:18.443Z,37.10
2022-08-25T09:04:17.299Z,37.65
2022-08-25T09:05:17.316Z,38.04
2022-08-25T09:06:17.284Z,37.44
2022-08-25T09:07:17.283Z,37.07
2022-08-25T09:08:20.292Z,37.37
2022-08-25T09:09:20.177Z,37.19
2022-08-25T09:10:17.254Z,36.04
2022-08-25T09:11:18.962Z,36.00
2022-08-25T09:12:18.182Z,36.67
2022-08-25T09:13:17.279Z,37.05
2022-08-25T09:14:17.305Z,37.22
2022-08-25T09:15:17.275Z,35.66
2022-08-25T09:16:20.439Z,34.52
2022-08-25T09:17:18.258Z,34.95
2022-08-25T09:18:17.328Z,35.26
2022-08-25T09:19:21.331Z,35.17
2022-08-25T09:20:19.347Z,34.91
2022-08-25T09:21:17.238Z,34.40
2022-08-25T09:22:33.285Z,33.22
2022-08-25T09:23:20.392Z,32.70
2022-08-25T09:24:17.232Z,31.63
2022-08-25T09:25:21.924Z,31.02
2022-08-25T09:26:18.210Z,30.03
2022-08-25T09:27:17.212Z,30.14
2022-08-25T09:28:17.204Z,31.75
2022-08-25T09:29:17.265Z,32.48
2022-08-25T09:30:17.177Z,32.61
2022-08-25T09:31:17.279Z,32.90
2022-08-25T09:32:17.190Z,33.39
2022-08-25T09:33:21.005Z,33.29
2022-08-25T09:34:17.184Z,33.22
2022-08-25T09:35:17.168Z,33.91
2022-08-25T09:36:17.195Z,33.73
2022-08-25T09:37:17.156Z,32.87
2022-08-25T09:38:17.159Z,32.53
2022-08-25T09:39:17.154Z,32.55
2022-08-25T09:40:17.193Z,31.75
2022-08-25T09:41:17.147Z,31.89
2022-08-25T09:42:19.890Z,32.51
2022-08-25T09:43:18.134Z,32.73
2022-08-25T09:44:17.123Z,32.91
2022-08-25T09:45:17.128Z,33.29
2022-08-25T09:46:18.078Z,34.13
2022-08-25T09:47:17.157Z,34.19
2022-08-25T09:48:17.117Z,33.73
2022-08-25T09:49:17.090Z,33.17
2022-08-25T09:50:18.469Z,32.38
2022-08-25T09:51:17.096Z,31.82
2022-08-25T09:52:17.432Z,31.56
2022-08-25T09:53:19.008Z,31.82
2022-08-25T09:54:17.075Z,32.08
2022-08-25T09:55:17.087Z,32.39
2022-08-25T09:56:17.070Z,32.72
2022-08-25T09:57:17.067Z,32.55
2022-08-25T09:58:17.084Z,32.88
2022-08-25T09:59:17.058Z,32.77
2022-08-25T10:00:17.038Z,32.38
2022-08-25T10:01:17.081Z,32.58
2022-08-25T10:02:17.038Z,32.73
2022-08-25T10:03:17.034Z,31.89
2022-08-25T10:04:20.838Z,31.34
2022-08-25T10:05:18.088Z,31.39
2022-08-25T10:06:17.024Z,31.68
2022-08-25T10:07:17.015Z,31.37
2022-08-25T10:08:17.006Z,31.29
2022-08-25T10:09:17.038Z,31.67
2022-08-25T10:10:17.000Z,31.79
2022-08-25T10:11:17.021Z,31.45
2022-08-25T10:12:16.981Z,31.05
2022-08-25T10:13:16.971Z,30.75
2022-08-25T10:14:18.007Z,31.42
2022-08-25T10:15:16.969Z,32.20
2022-08-25T10:16:24.071Z,32.32
2022-08-25T10:17:16.978Z,31.56
2022-08-25T10:18:16.949Z,31.10
2022-08-25T10:19:16.944Z,30.73
2022-08-25T10:20:16.982Z,30.65
2022-08-25T10:21:17.289Z,30.55
2022-08-25T10:22:16.929Z,31.10
2022-08-25T10:23:16.927Z,31.68
2022-08-25T10:24:16.934Z,31.52
2022-08-25T10:25:16.944Z,31.38
2022-08-25T10:26:16.918Z,30.99
2022-08-25T10:27:16.920Z,30.59
2022-08-25T10:28:16.913Z,30.17
2022-08-25T10:29:16.876Z,30.13
2022-08-25T10:30:16.906Z,30.45
2022-08-25T10:31:16.989Z,30.43
2022-08-25T10:32:16.889Z,29.96
2022-08-25T10:33:17.591Z,29.65
2022-08-25T10:34:16.880Z,29.63
2022-08-25T10:35:16.878Z,29.91
2022-08-25T10:36:16.889Z,30.64
2022-08-25T10:37:16.847Z,30.88
2022-08-25T10:38:21.753Z,30.89
2022-08-25T10:39:34.060Z,31.17
2022-08-25T10:40:17.919Z,30.51
2022-08-25T10:41:16.831Z,30.17
2022-08-25T10:42:16.862Z,29.92
2022-08-25T10:43:16.860Z,30.10
2022-08-25T10:44:16.815Z,30.11
2022-08-25T10:45:16.818Z,30.03
2022-08-25T10:46:18.880Z,30.02
2022-08-25T10:47:16.826Z,29.78
2022-08-25T10:48:16.810Z,29.63
2022-08-25T10:49:16.808Z,29.29
2022-08-25T10:50:16.793Z,29.24
2022-08-25T10:51:20.517Z,29.34
2022-08-25T10:52:18.806Z,29.49
2022-08-25T10:53:16.927Z,29.56
2022-08-25T10:54:16.776Z,29.50
2022-08-25T10:55:16.776Z,29.66
2022-08-25T10:56:16.759Z,29.77
2022-08-25T10:57:16.762Z,29.78
2022-08-25T10:58:17.044Z,30.02
2022-08-25T10:59:16.763Z,30.20
2022-08-25T11:00:16.764Z,30.03
2022-08-25T11:01:16.834Z,29.91
2022-08-25T11:02:16.739Z,29.61
2022-08-25T11:03:16.792Z,29.54
2022-08-25T11:04:16.733Z,29.76
2022-08-25T11:05:16.716Z,29.91
2022-08-25T11:06:16.729Z,29.92
2022-08-25T11:07:16.722Z,29.77
2022-08-25T11:08:16.739Z,29.18
2022-08-25T11:09:16.830Z,28.87
2022-08-25T11:10:16.703Z,28.53
2022-08-25T11:11:16.706Z,28.31
2022-08-25T11:12:16.703Z,27.97
2022-08-25T11:13:16.695Z,28.27
2022-08-25T11:14:16.886Z,28.44
2022-08-25T11:15:16.705Z,28.62
2022-08-25T11:16:19.201Z,29.12
2022-08-25T11:17:17.756Z,29.47
2022-08-25T11:18:16.669Z,29.56
2022-08-25T11:19:16.655Z,29.70
2022-08-25T11:20:19.968Z,29.50
2022-08-25T11:21:17.639Z,29.34
2022-08-25T11:22:16.655Z,29.17
2022-08-25T11:23:16.629Z,29.36
2022-08-25T11:24:16.643Z,29.41
2022-08-25T11:25:16.660Z,29.55
2022-08-25T11:26:16.615Z,29.54
2022-08-25T11:27:17.617Z,29.68
2022-08-25T11:28:16.609Z,29.89
2022-08-25T11:29:16.591Z,30.48
2022-08-25T11:30:16.606Z,30.07
2022-08-25T11:31:16.763Z,30.51
2022-08-25T11:32:16.591Z,30.93
2022-08-25T11:33:16.603Z,31.19
2022-08-25T11:34:19.399Z,31.22
2022-08-25T11:35:16.576Z,31.23
2022-08-25T11:36:16.912Z,31.02
2022-08-25T11:37:16.575Z,30.85
2022-08-25T11:38:16.564Z,30.65
2022-08-25T11:39:17.415Z,30.59
2022-08-25T11:40:16.612Z,30.36
2022-08-25T11:41:16.552Z,29.77
2022-08-25T11:42:17.409Z,29.07
2022-08-25T11:43:16.535Z,28.91
2022-08-25T11:44:16.528Z,28.66
2022-08-25T11:45:16.516Z,28.72
2022-08-25T11:46:16.539Z,28.89
2022-08-25T11:47:21.559Z,28.71
2022-08-25T11:48:17.516Z,28.62
2022-08-25T11:49:16.504Z,28.31
2022-08-25T11:50:16.502Z,28.31
2022-08-25T11:51:16.550Z,28.37
2022-08-25T11:52:16.493Z,28.43
2022-08-25T11:53:16.501Z,28.52
2022-08-25T11:54:16.477Z,28.65
2022-08-25T11:55:16.485Z,28.79
2022-08-25T11:56:16.456Z,28.77
2022-08-25T11:57:16.445Z,28.81
2022-08-25T11:58:16.885Z,28.79
2022-08-25T11:59:16.455Z,28.71
2022-08-25T12:00:16.457Z,28.46
2022-08-25T12:01:16.438Z,28.20
2022-08-25T12:02:16.434Z,28.56
2022-08-25T12:03:16.429Z,29.13
2022-08-25T12:04:16.505Z,29.39
2022-08-25T12:05:16.534Z,29.52
2022-08-25T12:06:16.419Z,29.87
2022-08-25T12:07:16.414Z,30.05
2022-08-25T12:08:16.414Z,30.11
2022-08-25T12:09:16.407Z,30.13
2022-08-25T12:10:16.399Z,30.32
2022-08-25T12:11:16.391Z,30.14
2022-08-25T12:12:16.384Z,30.10
2022-08-25T12:13:16.361Z,30.10
2022-08-25T12:14:16.384Z,29.95
2022-08-25T12:15:16.400Z,29.68
2022-08-25T12:16:16.367Z,29.36
2022-08-25T12:17:16.350Z,29.40
2022-08-25T12:18:16.340Z,29.41
2022-08-25T12:19:16.362Z,29.33
2022-08-25T12:20:16.409Z,29.36
2022-08-25T12:21:16.331Z,29.25
2022-08-25T12:22:16.340Z,29.19
2022-08-25T12:23:16.330Z,29.24
2022-08-25T12:24:16.331Z,29.54
2022-08-25T12:25:16.307Z,29.66
2022-08-25T12:26:16.465Z,29.78
2022-08-25T12:27:16.313Z,29.92
2022-08-25T12:28:16.310Z,29.81
2022-08-25T12:29:16.293Z,29.80
2022-08-25T12:30:18.640Z,29.98
2022-08-25T12:31:16.423Z,30.11
2022-08-25T12:32:16.280Z,30.22
2022-08-25T12:33:16.268Z,30.30
2022-08-25T12:34:16.267Z,30.43
2022-08-25T12:35:16.259Z,30.82
2022-08-25T12:36:16.252Z,30.74
2022-08-25T12:37:16.289Z,30.39
2022-08-25T12:38:16.250Z,30.53
2022-08-25T12:39:16.429Z,30.75
2022-08-25T12:40:16.267Z,31.14
2022-08-25T12:41:16.270Z,31.24
2022-08-25T12:42:16.252Z,31.15
2022-08-25T12:43:19.589Z,31.27
2022-08-25T12:44:16.224Z,31.24
2022-08-25T12:45:16.218Z,30.75
2022-08-25T12:46:16.241Z,30.40
2022-08-25T12:47:16.207Z,30.46
2022-08-25T12:48:16.240Z,30.78
2022-08-25T12:49:16.189Z,31.02
2022-08-25T12:50:16.180Z,31.05
2022-08-25T12:51:16.165Z,30.95
2022-08-25T12:52:16.183Z,30.90
2022-08-25T12:53:16.276Z,30.73